sensor_id;sensor_type;location;lat;lon;timestamp;P1;durP1;ratioP1;P2;durP2;ratioP2
18072;SDS011;9161;47.348;9.648;2022-10-22T00:02:41;44.87;;;21.30;;
18072;SDS011;9161;47.348;9.648;2022-10-22T00:07:25;33.90;;;19.30;;
18072;SDS011;9161;47.348;9.648;2022-10-22T00:12:10;29.47;;;16.73;;
18072;SDS011;9161;47.348;9.648;2022-10-22T00:16:54;28.67;;;14.30;;
18072;SDS011;9161;47.348;9.648;2022-10-22T00:21:41;22.20;;;12.50;;
18072;SDS011;9161;47.348;9.648;2022-10-22T00:26:24;19.63;;;9.63;;
18072;SDS011;9161;47.348;9.648;2022-10-22T00:31:09;18.70;;;9.47;;
18072;SDS011;9161;47.348;9.648;2022-10-22T00:35:53;21.37;;;9.50;;
18072;SDS011;9161;47.348;9.648;2022-10-22T00:40:37;3.93;;;1.60;;
18072;SDS011;9161;47.348;9.648;2022-10-22T00:45:22;4.80;;;1.90;;
18072;SDS011;9161;47.348;9.648;2022-10-22T00:50:09;7.83;;;3.27;;
18072;SDS011;9161;47.348;9.648;2022-10-22T00:54:56;11.07;;;4.70;;
18072;SDS011;9161;47.348;9.648;2022-10-22T00:59:40;4.30;;;1.30;;
18072;SDS011;9161;47.348;9.648;2022-10-22T01:04:24;4.53;;;0.70;;
18072;SDS011;9161;47.348;9.648;2022-10-22T01:09:11;3.90;;;0.90;;
18072;SDS011;9161;47.348;9.648;2022-10-22T01:14:01;1.70;;;0.40;;
18072;SDS011;9161;47.348;9.648;2022-10-22T01:18:53;0.20;;;0.20;;
18072;SDS011;9161;47.348;9.648;2022-10-22T01:29:17;0.10;;;0.10;;
18072;SDS011;9161;47.348;9.648;2022-10-22T01:34:06;0.87;;;0.10;;
18072;SDS011;9161;47.348;9.648;2022-10-22T01:38:51;0.10;;;0.10;;
18072;SDS011;9161;47.348;9.648;2022-10-22T01:43:36;0.47;;;0.30;;
18072;SDS011;9161;47.348;9.648;2022-10-22T01:48:24;0.20;;;0.20;;
18072;SDS011;9161;47.348;9.648;2022-10-22T01:53:17;2.27;;;0.20;;
18072;SDS011;9161;47.348;9.648;2022-10-22T01:58:11;0.33;;;0.20;;
18072;SDS011;9161;47.348;9.648;2022-10-22T02:03:04;0.37;;;0.30;;
18072;SDS011;9161;47.348;9.648;2022-10-22T02:07:53;1.00;;;0.20;;
18072;SDS011;9161;47.348;9.648;2022-10-22T02:12:41;1.70;;;0.40;;
18072;SDS011;9161;47.348;9.648;2022-10-22T02:17:27;0.60;;;0.30;;
18072;SDS011;9161;47.348;9.648;2022-10-22T02:22:13;2.27;;;0.20;;
18072;SDS011;9161;47.348;9.648;2022-10-22T02:27:00;3.10;;;0.47;;
18072;SDS011;9161;47.348;9.648;2022-10-22T02:31:48;3.10;;;0.40;;
18072;SDS011;9161;47.348;9.648;2022-10-22T02:36:35;1.60;;;0.30;;
18072;SDS011;9161;47.348;9.648;2022-10-22T02:41:20;1.57;;;0.47;;
18072;SDS011;9161;47.348;9.648;2022-10-22T02:46:05;1.10;;;0.33;;
18072;SDS011;9161;47.348;9.648;2022-10-22T02:50:49;2.23;;;0.37;;
18072;SDS011;9161;47.348;9.648;2022-10-22T02:55:32;1.63;;;0.73;;
18072;SDS011;9161;47.348;9.648;2022-10-22T03:00:16;0.73;;;0.40;;
18072;SDS011;9161;47.348;9.648;2022-10-22T03:05:01;2.00;;;0.23;;
18072;SDS011;9161;47.348;9.648;2022-10-22T03:09:45;2.00;;;0.20;;
18072;SDS011;9161;47.348;9.648;2022-10-22T03:14:28;0.80;;;0.30;;
18072;SDS011;9161;47.348;9.648;2022-10-22T03:19:12;1.93;;;0.30;;
18072;SDS011;9161;47.348;9.648;2022-10-22T03:23:57;1.80;;;0.50;;
18072;SDS011;9161;47.348;9.648;2022-10-22T03:28:43;2.07;;;0.50;;
18072;SDS011;9161;47.348;9.648;2022-10-22T03:33:28;0.87;;;0.50;;
18072;SDS011;9161;47.348;9.648;2022-10-22T03:38:12;2.67;;;0.50;;
18072;SDS011;9161;47.348;9.648;2022-10-22T03:42:58;0.60;;;0.40;;
18072;SDS011;9161;47.348;9.648;2022-10-22T03:47:42;0.53;;;0.40;;
18072;SDS011;9161;47.348;9.648;2022-10-22T03:52:25;1.60;;;0.50;;
18072;SDS011;9161;47.348;9.648;2022-10-22T03:57:09;0.70;;;0.60;;
18072;SDS011;9161;47.348;9.648;2022-10-22T04:01:54;2.00;;;0.90;;
18072;SDS011;9161;47.348;9.648;2022-10-22T04:06:38;1.03;;;0.60;;
18072;SDS011;9161;47.348;9.648;2022-10-22T04:11:21;3.60;;;0.90;;
18072;SDS011;9161;47.348;9.648;2022-10-22T04:16:05;2.17;;;0.70;;
18072;SDS011;9161;47.348;9.648;2022-10-22T04:20:51;2.67;;;0.60;;
18072;SDS011;9161;47.348;9.648;2022-10-22T04:25:35;0.60;;;0.50;;
18072;SDS011;9161;47.348;9.648;2022-10-22T04:30:18;0.90;;;0.67;;
18072;SDS011;9161;47.348;9.648;2022-10-22T04:35:02;0.90;;;0.80;;
18072;SDS011;9161;47.348;9.648;2022-10-22T04:39:48;2.20;;;0.70;;
18072;SDS011;9161;47.348;9.648;2022-10-22T04:44:32;1.50;;;0.60;;
18072;SDS011;9161;47.348;9.648;2022-10-22T04:49:15;1.57;;;0.60;;
18072;SDS011;9161;47.348;9.648;2022-10-22T04:53:59;0.90;;;0.43;;
18072;SDS011;9161;47.348;9.648;2022-10-22T04:58:44;2.37;;;0.60;;
18072;SDS011;9161;47.348;9.648;2022-10-22T05:03:28;1.33;;;0.60;;
18072;SDS011;9161;47.348;9.648;2022-10-22T05:08:12;3.93;;;0.60;;
18072;SDS011;9161;47.348;9.648;2022-10-22T05:12:55;4.60;;;0.70;;
18072;SDS011;9161;47.348;9.648;2022-10-22T05:17:40;1.93;;;0.90;;
18072;SDS011;9161;47.348;9.648;2022-10-22T05:22:24;1.87;;;0.80;;
18072;SDS011;9161;47.348;9.648;2022-10-22T05:27:07;1.53;;;0.90;;
18072;SDS011;9161;47.348;9.648;2022-10-22T05:31:51;1.47;;;0.90;;
18072;SDS011;9161;47.348;9.648;2022-10-22T05:36:36;2.80;;;0.80;;
18072;SDS011;9161;47.348;9.648;2022-10-22T05:41:21;1.87;;;0.80;;
18072;SDS011;9161;47.348;9.648;2022-10-22T05:46:05;2.00;;;1.30;;
18072;SDS011;9161;47.348;9.648;2022-10-22T05:50:53;2.17;;;1.40;;
18072;SDS011;9161;47.348;9.648;2022-10-22T05:55:38;1.60;;;1.20;;
18072;SDS011;9161;47.348;9.648;2022-10-22T06:00:22;5.67;;;1.50;;
18072;SDS011;9161;47.348;9.648;2022-10-22T06:05:05;2.63;;;1.40;;
18072;SDS011;9161;47.348;9.648;2022-10-22T06:09:49;3.70;;;1.60;;
18072;SDS011;9161;47.348;9.648;2022-10-22T06:14:35;5.30;;;2.73;;
18072;SDS011;9161;47.348;9.648;2022-10-22T06:19:20;3.10;;;1.67;;
18072;SDS011;9161;47.348;9.648;2022-10-22T06:24:06;6.43;;;1.50;;
18072;SDS011;9161;47.348;9.648;2022-10-22T06:28:51;4.43;;;1.40;;
18072;SDS011;9161;47.348;9.648;2022-10-22T06:33:36;2.27;;;1.03;;
18072;SDS011;9161;47.348;9.648;2022-10-22T06:38:22;1.63;;;0.70;;
18072;SDS011;9161;47.348;9.648;2022-10-22T06:43:06;2.50;;;0.67;;
18072;SDS011;9161;47.348;9.648;2022-10-22T06:47:49;2.43;;;0.60;;
18072;SDS011;9161;47.348;9.648;2022-10-22T06:52:35;1.43;;;0.87;;
18072;SDS011;9161;47.348;9.648;2022-10-22T06:57:19;1.50;;;1.17;;
18072;SDS011;9161;47.348;9.648;2022-10-22T07:02:03;1.33;;;0.40;;
18072;SDS011;9161;47.348;9.648;2022-10-22T07:06:47;2.70;;;0.70;;
18072;SDS011;9161;47.348;9.648;2022-10-22T07:11:35;0.70;;;0.47;;
18072;SDS011;9161;47.348;9.648;2022-10-22T07:16:21;0.50;;;0.30;;
18072;SDS011;9161;47.348;9.648;2022-10-22T07:21:12;0.90;;;0.60;;
18072;SDS011;9161;47.348;9.648;2022-10-22T07:25:57;1.63;;;0.70;;
18072;SDS011;9161;47.348;9.648;2022-10-22T07:30:44;1.70;;;0.70;;
18072;SDS011;9161;47.348;9.648;2022-10-22T07:35:28;4.37;;;1.20;;
18072;SDS011;9161;47.348;9.648;2022-10-22T07:40:12;3.87;;;1.10;;
18072;SDS011;9161;47.348;9.648;2022-10-22T07:44:55;0.97;;;0.50;;
18072;SDS011;9161;47.348;9.648;2022-10-22T07:49:40;0.70;;;0.40;;
18072;SDS011;9161;47.348;9.648;2022-10-22T07:54:24;1.00;;;0.50;;
18072;SDS011;9161;47.348;9.648;2022-10-22T07:59:11;3.67;;;0.97;;
18072;SDS011;9161;47.348;9.648;2022-10-22T08:03:55;2.33;;;0.77;;
18072;SDS011;9161;47.348;9.648;2022-10-22T08:08:40;3.40;;;0.77;;
18072;SDS011;9161;47.348;9.648;2022-10-22T08:13:24;3.60;;;0.80;;
18072;SDS011;9161;47.348;9.648;2022-10-22T08:18:08;3.20;;;0.60;;
18072;SDS011;9161;47.348;9.648;2022-10-22T08:22:54;1.17;;;0.50;;
18072;SDS011;9161;47.348;9.648;2022-10-22T08:27:39;2.00;;;0.90;;
18072;SDS011;9161;47.348;9.648;2022-10-22T08:32:24;1.97;;;0.80;;
18072;SDS011;9161;47.348;9.648;2022-10-22T08:37:12;1.47;;;0.50;;
18072;SDS011;9161;47.348;9.648;2022-10-22T08:41:59;3.67;;;0.57;;
18072;SDS011;9161;47.348;9.648;2022-10-22T08:47:02;0.90;;;0.60;;
18072;SDS011;9161;47.348;9.648;2022-10-22T08:52:01;1.70;;;0.50;;
18072;SDS011;9161;47.348;9.648;2022-10-22T08:56:47;4.30;;;0.67;;
18072;SDS011;9161;47.348;9.648;2022-10-22T09:01:37;2.73;;;0.50;;
18072;SDS011;9161;47.348;9.648;2022-10-22T09:06:25;4.23;;;0.67;;
18072;SDS011;9161;47.348;9.648;2022-10-22T09:11:23;3.83;;;1.03;;
18072;SDS011;9161;47.348;9.648;2022-10-22T09:16:13;2.63;;;0.60;;
18072;SDS011;9161;47.348;9.648;2022-10-22T09:21:01;2.17;;;0.83;;
18072;SDS011;9161;47.348;9.648;2022-10-22T09:25:53;2.30;;;0.47;;
18072;SDS011;9161;47.348;9.648;2022-10-22T09:30:39;4.27;;;0.73;;
18072;SDS011;9161;47.348;9.648;2022-10-22T09:35:23;1.57;;;0.50;;
18072;SDS011;9161;47.348;9.648;2022-10-22T09:40:09;5.93;;;0.53;;
18072;SDS011;9161;47.348;9.648;2022-10-22T09:44:58;0.70;;;0.40;;
18072;SDS011;9161;47.348;9.648;2022-10-22T09:49:42;12.93;;;0.80;;
18072;SDS011;9161;47.348;9.648;2022-10-22T09:54:36;1.23;;;0.60;;
18072;SDS011;9161;47.348;9.648;2022-10-22T09:59:25;2.00;;;0.60;;
18072;SDS011;9161;47.348;9.648;2022-10-22T10:04:13;2.17;;;0.40;;
18072;SDS011;9161;47.348;9.648;2022-10-22T10:08:58;1.60;;;0.50;;
18072;SDS011;9161;47.348;9.648;2022-10-22T10:13:49;0.43;;;0.30;;
18072;SDS011;9161;47.348;9.648;2022-10-22T10:18:42;5.10;;;1.57;;
18072;SDS011;9161;47.348;9.648;2022-10-22T10:23:40;1.27;;;0.60;;
18072;SDS011;9161;47.348;9.648;2022-10-22T10:28:33;0.50;;;0.30;;
18072;SDS011;9161;47.348;9.648;2022-10-22T10:33:36;2.07;;;0.70;;
18072;SDS011;9161;47.348;9.648;2022-10-22T10:38:34;1.23;;;0.57;;
18072;SDS011;9161;47.348;9.648;2022-10-22T10:43:26;2.03;;;0.47;;
18072;SDS011;9161;47.348;9.648;2022-10-22T10:48:26;1.40;;;0.50;;
18072;SDS011;9161;47.348;9.648;2022-10-22T10:53:23;1.45;;;0.52;;
18072;SDS011;9161;47.348;9.648;2022-10-22T10:58:16;2.63;;;1.30;;
18072;SDS011;9161;47.348;9.648;2022-10-22T11:08:30;0.63;;;0.50;;
18072;SDS011;9161;47.348;9.648;2022-10-22T11:13:19;1.42;;;0.52;;
18072;SDS011;9161;47.348;9.648;2022-10-22T11:18:11;0.98;;;0.50;;
18072;SDS011;9161;47.348;9.648;2022-10-22T11:23:01;0.40;;;0.20;;
18072;SDS011;9161;47.348;9.648;2022-10-22T11:28:08;0.63;;;0.40;;
18072;SDS011;9161;47.348;9.648;2022-10-22T11:33:03;2.03;;;0.70;;
18072;SDS011;9161;47.348;9.648;2022-10-22T11:37:49;2.72;;;0.43;;
18072;SDS011;9161;47.348;9.648;2022-10-22T11:42:35;0.20;;;0.20;;
18072;SDS011;9161;47.348;9.648;2022-10-22T11:47:24;0.47;;;0.20;;
18072;SDS011;9161;47.348;9.648;2022-10-22T11:57:26;0.25;;;0.10;;
18072;SDS011;9161;47.348;9.648;2022-10-22T12:02:30;0.68;;;0.30;;
18072;SDS011;9161;47.348;9.648;2022-10-22T12:07:29;1.25;;;0.60;;
18072;SDS011;9161;47.348;9.648;2022-10-22T12:12:18;1.33;;;0.22;;
18072;SDS011;9161;47.348;9.648;2022-10-22T12:17:04;0.40;;;0.20;;
18072;SDS011;9161;47.348;9.648;2022-10-22T12:21:52;1.00;;;0.30;;
18072;SDS011;9161;47.348;9.648;2022-10-22T12:26:36;2.45;;;0.30;;
18072;SDS011;9161;47.348;9.648;2022-10-22T12:31:21;1.17;;;0.40;;
18072;SDS011;9161;47.348;9.648;2022-10-22T12:36:05;0.32;;;0.20;;
18072;SDS011;9161;47.348;9.648;2022-10-22T12:40:49;0.43;;;0.35;;
18072;SDS011;9161;47.348;9.648;2022-10-22T12:45:36;0.45;;;0.40;;
18072;SDS011;9161;47.348;9.648;2022-10-22T12:50:22;2.88;;;0.20;;
18072;SDS011;9161;47.348;9.648;2022-10-22T12:55:14;0.40;;;0.17;;
18072;SDS011;9161;47.348;9.648;2022-10-22T12:59:58;0.17;;;0.17;;
18072;SDS011;9161;47.348;9.648;2022-10-22T13:05:01;1.20;;;0.40;;
18072;SDS011;9161;47.348;9.648;2022-10-22T13:09:58;0.93;;;0.20;;
18072;SDS011;9161;47.348;9.648;2022-10-22T13:14:42;0.30;;;0.20;;
18072;SDS011;9161;47.348;9.648;2022-10-22T13:19:37;0.47;;;0.30;;
18072;SDS011;9161;47.348;9.648;2022-10-22T13:24:22;1.05;;;0.30;;
18072;SDS011;9161;47.348;9.648;2022-10-22T13:29:09;0.20;;;0.20;;
18072;SDS011;9161;47.348;9.648;2022-10-22T13:33:55;0.32;;;0.20;;
18072;SDS011;9161;47.348;9.648;2022-10-22T13:38:48;1.52;;;0.20;;
18072;SDS011;9161;47.348;9.648;2022-10-22T13:43:32;1.50;;;0.20;;
18072;SDS011;9161;47.348;9.648;2022-10-22T13:48:17;0.10;;;0.10;;
18072;SDS011;9161;47.348;9.648;2022-10-22T13:53:03;0.15;;;0.10;;
18072;SDS011;9161;47.348;9.648;2022-10-22T13:57:48;0.50;;;0.20;;
18072;SDS011;9161;47.348;9.648;2022-10-22T14:02:32;0.63;;;0.20;;
18072;SDS011;9161;47.348;9.648;2022-10-22T14:07:17;0.30;;;0.20;;
18072;SDS011;9161;47.348;9.648;2022-10-22T14:12:01;0.30;;;0.30;;
18072;SDS011;9161;47.348;9.648;2022-10-22T14:16:49;3.53;;;0.60;;
18072;SDS011;9161;47.348;9.648;2022-10-22T14:21:35;1.17;;;0.10;;
18072;SDS011;9161;47.348;9.648;2022-10-22T14:26:21;1.73;;;0.40;;
18072;SDS011;9161;47.348;9.648;2022-10-22T14:31:07;0.63;;;0.30;;
18072;SDS011;9161;47.348;9.648;2022-10-22T14:35:52;0.95;;;0.50;;
18072;SDS011;9161;47.348;9.648;2022-10-22T14:40:36;0.57;;;0.30;;
18072;SDS011;9161;47.348;9.648;2022-10-22T14:45:25;2.90;;;0.35;;
18072;SDS011;9161;47.348;9.648;2022-10-22T14:50:09;0.57;;;0.32;;
18072;SDS011;9161;47.348;9.648;2022-10-22T14:54:54;0.40;;;0.20;;
18072;SDS011;9161;47.348;9.648;2022-10-22T14:59:37;1.45;;;0.20;;
18072;SDS011;9161;47.348;9.648;2022-10-22T15:04:22;1.73;;;0.75;;
18072;SDS011;9161;47.348;9.648;2022-10-22T15:09:07;2.22;;;1.30;;
18072;SDS011;9161;47.348;9.648;2022-10-22T15:13:51;1.52;;;1.27;;
18072;SDS011;9161;47.348;9.648;2022-10-22T15:18:35;0.47;;;0.35;;
18072;SDS011;9161;47.348;9.648;2022-10-22T15:23:20;0.88;;;0.40;;
18072;SDS011;9161;47.348;9.648;2022-10-22T15:28:04;2.00;;;0.60;;
18072;SDS011;9161;47.348;9.648;2022-10-22T15:32:50;2.80;;;0.40;;
18072;SDS011;9161;47.348;9.648;2022-10-22T15:37:34;4.90;;;1.05;;
18072;SDS011;9161;47.348;9.648;2022-10-22T15:42:20;1.35;;;0.57;;
18072;SDS011;9161;47.348;9.648;2022-10-22T15:47:04;1.40;;;0.50;;
18072;SDS011;9161;47.348;9.648;2022-10-22T15:51:49;2.00;;;0.40;;
18072;SDS011;9161;47.348;9.648;2022-10-22T15:56:33;2.03;;;0.70;;
18072;SDS011;9161;47.348;9.648;2022-10-22T16:01:18;12.68;;;1.10;;
18072;SDS011;9161;47.348;9.648;2022-10-22T16:06:02;10.93;;;0.90;;
18072;SDS011;9161;47.348;9.648;2022-10-22T16:10:47;4.23;;;0.80;;
18072;SDS011;9161;47.348;9.648;2022-10-22T16:15:31;6.10;;;1.30;;
18072;SDS011;9161;47.348;9.648;2022-10-22T16:20:19;5.30;;;1.33;;
18072;SDS011;9161;47.348;9.648;2022-10-22T16:25:03;4.00;;;1.30;;
18072;SDS011;9161;47.348;9.648;2022-10-22T16:29:48;5.03;;;1.57;;
18072;SDS011;9161;47.348;9.648;2022-10-22T16:34:32;7.70;;;1.87;;
18072;SDS011;9161;47.348;9.648;2022-10-22T16:39:18;8.47;;;2.37;;
18072;SDS011;9161;47.348;9.648;2022-10-22T16:44:02;5.27;;;2.13;;
18072;SDS011;9161;47.348;9.648;2022-10-22T16:48:49;4.77;;;2.30;;
18072;SDS011;9161;47.348;9.648;2022-10-22T16:53:34;13.33;;;2.50;;
18072;SDS011;9161;47.348;9.648;2022-10-22T16:58:25;10.90;;;2.90;;
18072;SDS011;9161;47.348;9.648;2022-10-22T17:03:09;6.83;;;2.50;;
18072;SDS011;9161;47.348;9.648;2022-10-22T17:07:55;9.60;;;2.87;;
18072;SDS011;9161;47.348;9.648;2022-10-22T17:12:41;7.33;;;3.00;;
18072;SDS011;9161;47.348;9.648;2022-10-22T17:17:28;8.30;;;3.33;;
18072;SDS011;9161;47.348;9.648;2022-10-22T17:22:14;8.07;;;3.30;;
18072;SDS011;9161;47.348;9.648;2022-10-22T17:29:55;13.30;;;3.50;;
18072;SDS011;9161;47.348;9.648;2022-10-22T17:59:29;7.63;;;3.30;;
18072;SDS011;9161;47.348;9.648;2022-10-22T18:04:14;14.00;;;4.93;;
18072;SDS011;9161;47.348;9.648;2022-10-22T18:09:02;6.90;;;2.60;;
18072;SDS011;9161;47.348;9.648;2022-10-22T18:13:47;12.47;;;4.63;;
18072;SDS011;9161;47.348;9.648;2022-10-22T18:18:34;7.03;;;3.90;;
18072;SDS011;9161;47.348;9.648;2022-10-22T18:23:18;9.30;;;4.00;;
18072;SDS011;9161;47.348;9.648;2022-10-22T18:28:04;10.23;;;4.43;;
18072;SDS011;9161;47.348;9.648;2022-10-22T18:32:49;11.53;;;4.93;;
18072;SDS011;9161;47.348;9.648;2022-10-22T18:37:35;11.50;;;5.40;;
18072;SDS011;9161;47.348;9.648;2022-10-22T18:42:21;14.33;;;5.10;;
18072;SDS011;9161;47.348;9.648;2022-10-22T18:47:11;10.43;;;3.90;;
18072;SDS011;9161;47.348;9.648;2022-10-22T18:51:56;13.70;;;4.40;;
18072;SDS011;9161;47.348;9.648;2022-10-22T18:56:42;6.63;;;3.97;;
18072;SDS011;9161;47.348;9.648;2022-10-22T19:01:28;12.97;;;2.90;;
18072;SDS011;9161;47.348;9.648;2022-10-22T19:06:16;10.03;;;3.30;;
18072;SDS011;9161;47.348;9.648;2022-10-22T19:11:10;8.07;;;2.77;;
18072;SDS011;9161;47.348;9.648;2022-10-22T19:16:02;6.83;;;2.90;;
18072;SDS011;9161;47.348;9.648;2022-10-22T19:20:46;8.80;;;2.87;;
18072;SDS011;9161;47.348;9.648;2022-10-22T19:25:41;5.00;;;2.67;;
18072;SDS011;9161;47.348;9.648;2022-10-22T19:30:25;5.40;;;2.67;;
18072;SDS011;9161;47.348;9.648;2022-10-22T19:35:12;7.23;;;3.60;;
18072;SDS011;9161;47.348;9.648;2022-10-22T19:39:58;8.53;;;3.80;;
18072;SDS011;9161;47.348;9.648;2022-10-22T19:44:42;12.07;;;4.07;;
18072;SDS011;9161;47.348;9.648;2022-10-22T19:49:28;11.73;;;4.00;;
18072;SDS011;9161;47.348;9.648;2022-10-22T19:54:15;8.57;;;3.30;;
18072;SDS011;9161;47.348;9.648;2022-10-22T19:59:01;8.80;;;3.60;;
18072;SDS011;9161;47.348;9.648;2022-10-22T20:03:47;9.43;;;3.50;;
18072;SDS011;9161;47.348;9.648;2022-10-22T20:08:32;4.70;;;3.07;;
18072;SDS011;9161;47.348;9.648;2022-10-22T20:13:20;8.77;;;3.70;;
18072;SDS011;9161;47.348;9.648;2022-10-22T20:18:04;7.60;;;3.13;;
18072;SDS011;9161;47.348;9.648;2022-10-22T20:22:48;8.43;;;3.90;;
18072;SDS011;9161;47.348;9.648;2022-10-22T20:27:32;9.00;;;4.03;;
18072;SDS011;9161;47.348;9.648;2022-10-22T20:32:26;9.40;;;4.10;;
18072;SDS011;9161;47.348;9.648;2022-10-22T20:37:10;12.07;;;3.87;;
18072;SDS011;9161;47.348;9.648;2022-10-22T20:41:55;7.20;;;3.53;;
18072;SDS011;9161;47.348;9.648;2022-10-22T20:46:40;8.20;;;3.83;;
18072;SDS011;9161;47.348;9.648;2022-10-22T20:51:25;7.67;;;3.33;;
18072;SDS011;9161;47.348;9.648;2022-10-22T20:56:09;9.67;;;3.93;;
18072;SDS011;9161;47.348;9.648;2022-10-22T21:00:54;9.10;;;4.07;;
18072;SDS011;9161;47.348;9.648;2022-10-22T21:05:38;11.40;;;4.73;;
18072;SDS011;9161;47.348;9.648;2022-10-22T21:10:23;6.93;;;4.30;;
18072;SDS011;9161;47.348;9.648;2022-10-22T21:15:13;10.47;;;3.87;;
18072;SDS011;9161;47.348;9.648;2022-10-22T21:19:56;6.63;;;3.47;;
18072;SDS011;9161;47.348;9.648;2022-10-22T21:24:40;9.43;;;3.47;;
18072;SDS011;9161;47.348;9.648;2022-10-22T21:29:25;9.00;;;3.37;;
18072;SDS011;9161;47.348;9.648;2022-10-22T21:34:09;7.27;;;2.70;;
18072;SDS011;9161;47.348;9.648;2022-10-22T21:38:54;5.97;;;2.80;;
18072;SDS011;9161;47.348;9.648;2022-10-22T21:43:38;5.90;;;2.70;;
18072;SDS011;9161;47.348;9.648;2022-10-22T21:48:24;7.27;;;3.80;;
18072;SDS011;9161;47.348;9.648;2022-10-22T21:53:08;7.07;;;3.33;;
18072;SDS011;9161;47.348;9.648;2022-10-22T21:57:52;10.17;;;3.90;;
18072;SDS011;9161;47.348;9.648;2022-10-22T22:02:36;9.30;;;4.20;;
18072;SDS011;9161;47.348;9.648;2022-10-22T22:07:21;8.03;;;4.03;;
18072;SDS011;9161;47.348;9.648;2022-10-22T22:12:05;7.03;;;3.20;;
18072;SDS011;9161;47.348;9.648;2022-10-22T22:16:49;5.83;;;2.80;;
18072;SDS011;9161;47.348;9.648;2022-10-22T22:21:34;6.67;;;2.77;;
18072;SDS011;9161;47.348;9.648;2022-10-22T22:26:22;4.93;;;2.50;;
18072;SDS011;9161;47.348;9.648;2022-10-22T22:31:11;5.40;;;2.60;;
18072;SDS011;9161;47.348;9.648;2022-10-22T22:35:57;4.43;;;2.50;;
18072;SDS011;9161;47.348;9.648;2022-10-22T22:40:40;3.83;;;2.50;;
18072;SDS011;9161;47.348;9.648;2022-10-22T22:45:25;6.00;;;3.60;;
18072;SDS011;9161;47.348;9.648;2022-10-22T22:50:09;8.53;;;2.30;;
18072;SDS011;9161;47.348;9.648;2022-10-22T22:54:52;8.10;;;2.67;;
18072;SDS011;9161;47.348;9.648;2022-10-22T22:59:36;5.10;;;2.70;;
18072;SDS011;9161;47.348;9.648;2022-10-22T23:04:21;6.00;;;2.33;;
18072;SDS011;9161;47.348;9.648;2022-10-22T23:09:06;7.00;;;2.50;;
18072;SDS011;9161;47.348;9.648;2022-10-22T23:13:51;4.87;;;2.20;;
18072;SDS011;9161;47.348;9.648;2022-10-22T23:18:36;8.40;;;2.10;;
18072;SDS011;9161;47.348;9.648;2022-10-22T23:23:23;7.07;;;1.73;;
18072;SDS011;9161;47.348;9.648;2022-10-22T23:28:06;3.93;;;1.53;;
18072;SDS011;9161;47.348;9.648;2022-10-22T23:32:50;4.10;;;0.80;;
18072;SDS011;9161;47.348;9.648;2022-10-22T23:37:33;1.10;;;0.40;;
18072;SDS011;9161;47.348;9.648;2022-10-22T23:42:18;2.20;;;0.80;;
18072;SDS011;9161;47.348;9.648;2022-10-22T23:47:02;3.90;;;0.43;;
18072;SDS011;9161;47.348;9.648;2022-10-22T23:51:45;1.13;;;0.50;;
18072;SDS011;9161;47.348;9.648;2022-10-22T23:56:29;0.60;;;0.30;;
